sensor_id;sensor_type;location;lat;lon;timestamp;temperature;humidity
23120;DHT22;11729;50.836;4.330;2022-10-16T00:01:10;15.40;99.90
23120;DHT22;11729;50.836;4.330;2022-10-16T00:03:37;15.40;99.90
23120;DHT22;11729;50.836;4.330;2022-10-16T00:06:04;15.40;99.90
23120;DHT22;11729;50.836;4.330;2022-10-16T00:08:31;15.30;99.90
23120;DHT22;11729;50.836;4.330;2022-10-16T00:11:04;15.20;99.90
23120;DHT22;11729;50.836;4.330;2022-10-16T00:13:32;15.30;99.90
23120;DHT22;11729;50.836;4.330;2022-10-16T00:15:58;15.30;99.90
23120;DHT22;11729;50.836;4.330;2022-10-16T00:18:25;15.30;99.90
23120;DHT22;11729;50.836;4.330;2022-10-16T00:20:51;15.30;99.90
23120;DHT22;11729;50.836;4.330;2022-10-16T00:23:16;15.30;99.90
23120;DHT22;11729;50.836;4.330;2022-10-16T00:25:42;15.40;99.90
23120;DHT22;11729;50.836;4.330;2022-10-16T00:28:08;15.40;99.90
23120;DHT22;11729;50.836;4.330;2022-10-16T00:30:36;15.30;99.90
23120;DHT22;11729;50.836;4.330;2022-10-16T00:33:02;15.30;99.90
23120;DHT22;11729;50.836;4.330;2022-10-16T00:35:28;15.30;99.90
23120;DHT22;11729;50.836;4.330;2022-10-16T00:37:54;15.20;99.90
23120;DHT22;11729;50.836;4.330;2022-10-16T00:40:20;15.20;99.90
23120;DHT22;11729;50.836;4.330;2022-10-16T00:42:45;15.20;99.90
23120;DHT22;11729;50.836;4.330;2022-10-16T00:45:11;15.30;99.90
23120;DHT22;11729;50.836;4.330;2022-10-16T00:47:40;15.20;99.90
23120;DHT22;11729;50.836;4.330;2022-10-16T00:50:33;15.20;99.90
23120;DHT22;11729;50.836;4.330;2022-10-16T00:52:58;15.20;99.90
23120;DHT22;11729;50.836;4.330;2022-10-16T00:55:25;15.10;99.90
23120;DHT22;11729;50.836;4.330;2022-10-16T00:57:52;15.10;99.90
23120;DHT22;11729;50.836;4.330;2022-10-16T01:00:21;15.20;99.90
23120;DHT22;11729;50.836;4.330;2022-10-16T01:02:55;15.10;99.90
23120;DHT22;11729;50.836;4.330;2022-10-16T01:05:23;15.10;99.90
23120;DHT22;11729;50.836;4.330;2022-10-16T01:07:56;15.10;99.90
23120;DHT22;11729;50.836;4.330;2022-10-16T01:10:39;15.10;99.90
23120;DHT22;11729;50.836;4.330;2022-10-16T01:13:08;15.00;99.90
23120;DHT22;11729;50.836;4.330;2022-10-16T01:21:01;15.00;99.90
23120;DHT22;11729;50.836;4.330;2022-10-16T01:24:01;15.00;99.90
23120;DHT22;11729;50.836;4.330;2022-10-16T01:31:55;15.00;99.90
23120;DHT22;11729;50.836;4.330;2022-10-16T01:34:30;15.00;99.90
23120;DHT22;11729;50.836;4.330;2022-10-16T01:37:02;14.90;99.90
23120;DHT22;11729;50.836;4.330;2022-10-16T01:39:31;14.90;99.90
23120;DHT22;11729;50.836;4.330;2022-10-16T01:42:06;14.90;99.90
23120;DHT22;11729;50.836;4.330;2022-10-16T01:44:33;14.80;99.90
23120;DHT22;11729;50.836;4.330;2022-10-16T01:47:00;14.90;99.90
23120;DHT22;11729;50.836;4.330;2022-10-16T01:49:30;15.00;99.90
23120;DHT22;11729;50.836;4.330;2022-10-16T01:51:59;15.00;99.90
23120;DHT22;11729;50.836;4.330;2022-10-16T01:54:28;15.00;99.90
23120;DHT22;11729;50.836;4.330;2022-10-16T01:56:58;14.90;99.90
23120;DHT22;11729;50.836;4.330;2022-10-16T01:59:26;14.80;99.90
23120;DHT22;11729;50.836;4.330;2022-10-16T02:01:59;14.80;99.90
23120;DHT22;11729;50.836;4.330;2022-10-16T02:04:32;14.80;99.90
23120;DHT22;11729;50.836;4.330;2022-10-16T02:06:58;14.70;99.90
23120;DHT22;11729;50.836;4.330;2022-10-16T02:09:25;14.70;99.90
23120;DHT22;11729;50.836;4.330;2022-10-16T02:11:54;14.70;99.90
23120;DHT22;11729;50.836;4.330;2022-10-16T02:14:21;14.70;99.90
23120;DHT22;11729;50.836;4.330;2022-10-16T02:16:49;14.80;99.90
23120;DHT22;11729;50.836;4.330;2022-10-16T02:19:17;14.80;99.90
23120;DHT22;11729;50.836;4.330;2022-10-16T02:21:57;14.80;99.90
23120;DHT22;11729;50.836;4.330;2022-10-16T02:30:29;14.90;99.90
23120;DHT22;11729;50.836;4.330;2022-10-16T02:32:58;14.90;99.90
23120;DHT22;11729;50.836;4.330;2022-10-16T02:35:24;14.90;99.90
23120;DHT22;11729;50.836;4.330;2022-10-16T02:37:52;14.90;99.90
23120;DHT22;11729;50.836;4.330;2022-10-16T02:40:19;14.80;99.90
23120;DHT22;11729;50.836;4.330;2022-10-16T02:42:49;14.90;99.90
23120;DHT22;11729;50.836;4.330;2022-10-16T02:45:14;14.80;99.90
23120;DHT22;11729;50.836;4.330;2022-10-16T02:47:40;14.70;99.90
23120;DHT22;11729;50.836;4.330;2022-10-16T02:50:06;14.70;99.90
23120;DHT22;11729;50.836;4.330;2022-10-16T02:52:31;14.70;99.90
23120;DHT22;11729;50.836;4.330;2022-10-16T02:54:57;14.80;99.90
23120;DHT22;11729;50.836;4.330;2022-10-16T02:57:24;14.90;99.90
23120;DHT22;11729;50.836;4.330;2022-10-16T02:59:49;14.80;99.90
23120;DHT22;11729;50.836;4.330;2022-10-16T03:02:15;14.90;99.90
23120;DHT22;11729;50.836;4.330;2022-10-16T03:04:40;14.70;99.90
23120;DHT22;11729;50.836;4.330;2022-10-16T03:07:06;14.80;99.90
23120;DHT22;11729;50.836;4.330;2022-10-16T03:09:32;14.80;99.90
23120;DHT22;11729;50.836;4.330;2022-10-16T03:11:58;14.80;99.90
23120;DHT22;11729;50.836;4.330;2022-10-16T03:14:24;14.80;99.90
23120;DHT22;11729;50.836;4.330;2022-10-16T03:16:49;14.80;99.90
23120;DHT22;11729;50.836;4.330;2022-10-16T03:19:16;14.70;99.90
23120;DHT22;11729;50.836;4.330;2022-10-16T03:21:43;14.70;99.90
23120;DHT22;11729;50.836;4.330;2022-10-16T03:24:08;14.80;99.90
23120;DHT22;11729;50.836;4.330;2022-10-16T03:26:34;14.70;99.90
23120;DHT22;11729;50.836;4.330;2022-10-16T03:28:59;14.70;99.90
23120;DHT22;11729;50.836;4.330;2022-10-16T03:31:25;14.90;99.90
23120;DHT22;11729;50.836;4.330;2022-10-16T03:33:51;14.90;99.90
23120;DHT22;11729;50.836;4.330;2022-10-16T03:36:16;14.80;99.90
23120;DHT22;11729;50.836;4.330;2022-10-16T03:38:42;14.70;99.90
23120;DHT22;11729;50.836;4.330;2022-10-16T03:41:07;14.70;99.90
23120;DHT22;11729;50.836;4.330;2022-10-16T03:43:33;14.70;99.90
23120;DHT22;11729;50.836;4.330;2022-10-16T03:45:59;14.80;99.90
23120;DHT22;11729;50.836;4.330;2022-10-16T03:48:24;14.80;99.90
23120;DHT22;11729;50.836;4.330;2022-10-16T03:50:51;14.80;99.90
23120;DHT22;11729;50.836;4.330;2022-10-16T03:53:17;14.90;99.90
23120;DHT22;11729;50.836;4.330;2022-10-16T03:55:43;14.90;99.90
23120;DHT22;11729;50.836;4.330;2022-10-16T03:58:09;15.00;99.90
23120;DHT22;11729;50.836;4.330;2022-10-16T04:00:35;14.90;99.90
23120;DHT22;11729;50.836;4.330;2022-10-16T04:03:01;15.00;99.90
23120;DHT22;11729;50.836;4.330;2022-10-16T04:05:26;15.00;99.90
23120;DHT22;11729;50.836;4.330;2022-10-16T04:07:52;14.90;99.90
23120;DHT22;11729;50.836;4.330;2022-10-16T04:10:18;15.00;99.90
23120;DHT22;11729;50.836;4.330;2022-10-16T04:12:44;15.00;99.90
23120;DHT22;11729;50.836;4.330;2022-10-16T04:15:10;15.10;99.90
23120;DHT22;11729;50.836;4.330;2022-10-16T04:17:35;15.00;99.90
23120;DHT22;11729;50.836;4.330;2022-10-16T04:20:01;15.00;99.90
23120;DHT22;11729;50.836;4.330;2022-10-16T04:22:27;15.00;99.90
23120;DHT22;11729;50.836;4.330;2022-10-16T04:24:53;15.00;99.90
23120;DHT22;11729;50.836;4.330;2022-10-16T04:27:18;15.00;99.90
23120;DHT22;11729;50.836;4.330;2022-10-16T04:29:44;14.90;99.90
23120;DHT22;11729;50.836;4.330;2022-10-16T04:32:10;14.90;99.90
23120;DHT22;11729;50.836;4.330;2022-10-16T04:34:35;15.00;99.90
23120;DHT22;11729;50.836;4.330;2022-10-16T04:37:01;15.00;99.90
23120;DHT22;11729;50.836;4.330;2022-10-16T04:39:27;15.00;99.90
23120;DHT22;11729;50.836;4.330;2022-10-16T04:41:52;15.00;99.90
23120;DHT22;11729;50.836;4.330;2022-10-16T04:44:18;15.00;99.90
23120;DHT22;11729;50.836;4.330;2022-10-16T04:46:43;15.00;99.90
23120;DHT22;11729;50.836;4.330;2022-10-16T04:49:09;15.00;99.90
23120;DHT22;11729;50.836;4.330;2022-10-16T04:51:36;14.90;99.90
23120;DHT22;11729;50.836;4.330;2022-10-16T04:54:01;14.90;99.90
23120;DHT22;11729;50.836;4.330;2022-10-16T04:56:27;14.90;99.90
23120;DHT22;11729;50.836;4.330;2022-10-16T04:58:53;14.80;99.90
23120;DHT22;11729;50.836;4.330;2022-10-16T05:01:18;14.80;99.90
23120;DHT22;11729;50.836;4.330;2022-10-16T05:03:44;14.80;99.90
23120;DHT22;11729;50.836;4.330;2022-10-16T05:06:09;14.70;99.90
23120;DHT22;11729;50.836;4.330;2022-10-16T05:08:35;14.80;99.90
23120;DHT22;11729;50.836;4.330;2022-10-16T05:11:00;14.80;99.90
23120;DHT22;11729;50.836;4.330;2022-10-16T05:13:27;14.80;99.90
23120;DHT22;11729;50.836;4.330;2022-10-16T05:15:52;14.70;99.90
23120;DHT22;11729;50.836;4.330;2022-10-16T05:18:18;14.70;99.90
23120;DHT22;11729;50.836;4.330;2022-10-16T05:20:43;14.70;99.90
23120;DHT22;11729;50.836;4.330;2022-10-16T05:23:09;14.60;99.90
23120;DHT22;11729;50.836;4.330;2022-10-16T05:25:38;14.60;99.90
23120;DHT22;11729;50.836;4.330;2022-10-16T05:28:03;14.70;99.90
23120;DHT22;11729;50.836;4.330;2022-10-16T05:30:29;14.70;99.90
23120;DHT22;11729;50.836;4.330;2022-10-16T05:32:55;14.70;99.90
23120;DHT22;11729;50.836;4.330;2022-10-16T05:35:21;14.60;99.90
23120;DHT22;11729;50.836;4.330;2022-10-16T05:37:47;14.60;99.90
23120;DHT22;11729;50.836;4.330;2022-10-16T05:40:13;14.60;99.90
23120;DHT22;11729;50.836;4.330;2022-10-16T05:42:39;14.60;99.90
23120;DHT22;11729;50.836;4.330;2022-10-16T05:45:07;14.50;99.90
23120;DHT22;11729;50.836;4.330;2022-10-16T05:47:33;14.40;99.90
23120;DHT22;11729;50.836;4.330;2022-10-16T05:49:59;14.50;99.90
23120;DHT22;11729;50.836;4.330;2022-10-16T05:52:24;14.60;99.90
23120;DHT22;11729;50.836;4.330;2022-10-16T05:54:51;14.50;99.90
23120;DHT22;11729;50.836;4.330;2022-10-16T05:57:17;14.50;99.90
23120;DHT22;11729;50.836;4.330;2022-10-16T05:59:42;14.60;99.90
23120;DHT22;11729;50.836;4.330;2022-10-16T06:02:12;14.50;99.90
23120;DHT22;11729;50.836;4.330;2022-10-16T06:04:38;14.40;99.90
23120;DHT22;11729;50.836;4.330;2022-10-16T06:07:03;14.40;99.90
23120;DHT22;11729;50.836;4.330;2022-10-16T06:09:29;14.50;99.90
23120;DHT22;11729;50.836;4.330;2022-10-16T06:11:54;14.50;99.90
23120;DHT22;11729;50.836;4.330;2022-10-16T06:14:20;14.60;99.90
23120;DHT22;11729;50.836;4.330;2022-10-16T06:16:46;14.60;99.90
23120;DHT22;11729;50.836;4.330;2022-10-16T06:19:11;14.60;99.90
23120;DHT22;11729;50.836;4.330;2022-10-16T06:21:37;14.60;99.90
23120;DHT22;11729;50.836;4.330;2022-10-16T06:24:02;14.50;99.90
23120;DHT22;11729;50.836;4.330;2022-10-16T06:26:29;14.50;99.90
23120;DHT22;11729;50.836;4.330;2022-10-16T06:28:56;14.50;99.90
23120;DHT22;11729;50.836;4.330;2022-10-16T06:31:22;14.50;99.90
23120;DHT22;11729;50.836;4.330;2022-10-16T06:33:51;14.50;99.90
23120;DHT22;11729;50.836;4.330;2022-10-16T06:36:17;14.50;99.90
23120;DHT22;11729;50.836;4.330;2022-10-16T06:38:43;14.50;99.90
23120;DHT22;11729;50.836;4.330;2022-10-16T06:41:14;14.50;99.90
23120;DHT22;11729;50.836;4.330;2022-10-16T06:43:40;14.70;99.90
23120;DHT22;11729;50.836;4.330;2022-10-16T06:46:07;14.70;99.90
23120;DHT22;11729;50.836;4.330;2022-10-16T06:48:34;14.80;99.90
23120;DHT22;11729;50.836;4.330;2022-10-16T06:53:28;15.00;99.90
23120;DHT22;11729;50.836;4.330;2022-10-16T06:55:54;15.10;99.90
23120;DHT22;11729;50.836;4.330;2022-10-16T06:58:20;15.20;99.90
23120;DHT22;11729;50.836;4.330;2022-10-16T07:00:47;15.30;99.90
23120;DHT22;11729;50.836;4.330;2022-10-16T07:03:13;15.40;99.90
23120;DHT22;11729;50.836;4.330;2022-10-16T07:05:42;15.50;99.90
23120;DHT22;11729;50.836;4.330;2022-10-16T07:08:08;15.60;99.90
23120;DHT22;11729;50.836;4.330;2022-10-16T07:10:35;15.60;99.90
23120;DHT22;11729;50.836;4.330;2022-10-16T07:13:01;15.50;99.90
23120;DHT22;11729;50.836;4.330;2022-10-16T07:15:27;15.60;99.90
23120;DHT22;11729;50.836;4.330;2022-10-16T07:17:53;15.70;99.90
23120;DHT22;11729;50.836;4.330;2022-10-16T07:20:19;15.60;99.90
23120;DHT22;11729;50.836;4.330;2022-10-16T07:22:44;15.50;99.90
23120;DHT22;11729;50.836;4.330;2022-10-16T07:25:10;15.50;99.90
23120;DHT22;11729;50.836;4.330;2022-10-16T07:27:37;15.50;99.90
23120;DHT22;11729;50.836;4.330;2022-10-16T07:30:04;15.50;99.90
23120;DHT22;11729;50.836;4.330;2022-10-16T07:32:30;15.40;99.90
23120;DHT22;11729;50.836;4.330;2022-10-16T07:34:56;15.50;99.90
23120;DHT22;11729;50.836;4.330;2022-10-16T07:37:22;15.60;99.90
23120;DHT22;11729;50.836;4.330;2022-10-16T07:39:47;15.50;99.90
23120;DHT22;11729;50.836;4.330;2022-10-16T07:42:13;15.60;99.90
23120;DHT22;11729;50.836;4.330;2022-10-16T07:44:38;15.60;99.90
23120;DHT22;11729;50.836;4.330;2022-10-16T07:47:05;15.70;99.90
23120;DHT22;11729;50.836;4.330;2022-10-16T07:49:31;16.00;99.90
23120;DHT22;11729;50.836;4.330;2022-10-16T07:51:56;16.50;99.90
23120;DHT22;11729;50.836;4.330;2022-10-16T07:54:22;17.30;99.90
23120;DHT22;11729;50.836;4.330;2022-10-16T07:56:47;17.90;99.90
23120;DHT22;11729;50.836;4.330;2022-10-16T07:59:13;18.70;99.90
23120;DHT22;11729;50.836;4.330;2022-10-16T08:01:38;19.40;99.90
23120;DHT22;11729;50.836;4.330;2022-10-16T08:04:05;20.40;99.90
23120;DHT22;11729;50.836;4.330;2022-10-16T08:06:35;21.20;99.90
23120;DHT22;11729;50.836;4.330;2022-10-16T08:09:02;22.00;99.90
23120;DHT22;11729;50.836;4.330;2022-10-16T08:11:27;22.50;99.90
23120;DHT22;11729;50.836;4.330;2022-10-16T08:13:53;22.80;99.90
23120;DHT22;11729;50.836;4.330;2022-10-16T08:16:19;22.80;99.90
23120;DHT22;11729;50.836;4.330;2022-10-16T08:18:44;22.60;99.90
23120;DHT22;11729;50.836;4.330;2022-10-16T08:21:15;22.90;99.90
23120;DHT22;11729;50.836;4.330;2022-10-16T08:23:41;23.10;99.90
23120;DHT22;11729;50.836;4.330;2022-10-16T08:26:08;23.20;99.90
23120;DHT22;11729;50.836;4.330;2022-10-16T08:28:34;23.50;99.90
23120;DHT22;11729;50.836;4.330;2022-10-16T08:31:11;23.40;99.90
23120;DHT22;11729;50.836;4.330;2022-10-16T08:33:38;23.70;99.90
23120;DHT22;11729;50.836;4.330;2022-10-16T08:36:04;24.00;99.90
23120;DHT22;11729;50.836;4.330;2022-10-16T08:38:31;23.60;99.90
23120;DHT22;11729;50.836;4.330;2022-10-16T08:41:21;23.20;99.90
23120;DHT22;11729;50.836;4.330;2022-10-16T08:46:51;21.80;99.90
23120;DHT22;11729;50.836;4.330;2022-10-16T08:49:15;21.20;99.90
23120;DHT22;11729;50.836;4.330;2022-10-16T08:51:42;20.70;99.90
23120;DHT22;11729;50.836;4.330;2022-10-16T08:54:28;20.60;99.90
23120;DHT22;11729;50.836;4.330;2022-10-16T08:56:56;20.30;99.90
23120;DHT22;11729;50.836;4.330;2022-10-16T08:59:22;19.70;99.90
23120;DHT22;11729;50.836;4.330;2022-10-16T09:01:50;19.50;99.90
23120;DHT22;11729;50.836;4.330;2022-10-16T09:07:04;19.10;99.90
23120;DHT22;11729;50.836;4.330;2022-10-16T09:12:39;18.90;99.90
23120;DHT22;11729;50.836;4.330;2022-10-16T09:15:30;18.80;99.90
23120;DHT22;11729;50.836;4.330;2022-10-16T09:18:27;18.70;99.90
23120;DHT22;11729;50.836;4.330;2022-10-16T09:23:29;18.80;99.90
23120;DHT22;11729;50.836;4.330;2022-10-16T09:25:56;18.80;99.90
23120;DHT22;11729;50.836;4.330;2022-10-16T09:28:23;18.90;99.90
23120;DHT22;11729;50.836;4.330;2022-10-16T09:30:49;19.00;99.90
23120;DHT22;11729;50.836;4.330;2022-10-16T09:33:18;18.80;99.90
23120;DHT22;11729;50.836;4.330;2022-10-16T09:35:48;19.00;99.90
23120;DHT22;11729;50.836;4.330;2022-10-16T09:38:28;18.80;99.90
23120;DHT22;11729;50.836;4.330;2022-10-16T09:41:01;18.80;99.90
23120;DHT22;11729;50.836;4.330;2022-10-16T09:43:30;18.80;99.90
23120;DHT22;11729;50.836;4.330;2022-10-16T09:46:00;18.90;99.90
23120;DHT22;11729;50.836;4.330;2022-10-16T09:48:42;19.10;99.90
23120;DHT22;11729;50.836;4.330;2022-10-16T09:51:38;19.30;99.90
23120;DHT22;11729;50.836;4.330;2022-10-16T09:56:36;19.50;99.90
23120;DHT22;11729;50.836;4.330;2022-10-16T09:59:28;19.50;99.90
23120;DHT22;11729;50.836;4.330;2022-10-16T10:01:56;19.60;99.90
23120;DHT22;11729;50.836;4.330;2022-10-16T10:04:24;19.90;99.90
23120;DHT22;11729;50.836;4.330;2022-10-16T10:06:54;20.10;99.90
23120;DHT22;11729;50.836;4.330;2022-10-16T10:09:23;20.60;99.90
23120;DHT22;11729;50.836;4.330;2022-10-16T10:11:55;21.20;99.90
23120;DHT22;11729;50.836;4.330;2022-10-16T10:14:30;22.00;99.90
23120;DHT22;11729;50.836;4.330;2022-10-16T10:19:42;23.40;99.90
23120;DHT22;11729;50.836;4.330;2022-10-16T10:22:32;24.30;99.90
23120;DHT22;11729;50.836;4.330;2022-10-16T10:35:56;25.50;99.90
23120;DHT22;11729;50.836;4.330;2022-10-16T10:38:34;25.80;99.90
23120;DHT22;11729;50.836;4.330;2022-10-16T10:41:39;26.30;99.90
23120;DHT22;11729;50.836;4.330;2022-10-16T10:44:18;25.60;99.90
23120;DHT22;11729;50.836;4.330;2022-10-16T10:47:11;25.30;99.90
23120;DHT22;11729;50.836;4.330;2022-10-16T10:52:57;24.70;99.90
23120;DHT22;11729;50.836;4.330;2022-10-16T11:03:22;25.10;99.90
23120;DHT22;11729;50.836;4.330;2022-10-16T11:05:56;25.70;99.90
23120;DHT22;11729;50.836;4.330;2022-10-16T11:08:49;26.60;99.90
23120;DHT22;11729;50.836;4.330;2022-10-16T11:11:26;26.70;99.90
23120;DHT22;11729;50.836;4.330;2022-10-16T11:14:06;27.10;99.80
23120;DHT22;11729;50.836;4.330;2022-10-16T11:19:32;27.40;99.50
23120;DHT22;11729;50.836;4.330;2022-10-16T11:22:11;27.30;98.50
23120;DHT22;11729;50.836;4.330;2022-10-16T11:27:11;28.50;96.70
23120;DHT22;11729;50.836;4.330;2022-10-16T11:29:48;29.40;94.50
23120;DHT22;11729;50.836;4.330;2022-10-16T11:32:30;28.70;93.80
23120;DHT22;11729;50.836;4.330;2022-10-16T11:35:10;28.00;95.00
23120;DHT22;11729;50.836;4.330;2022-10-16T11:37:41;27.60;96.20
23120;DHT22;11729;50.836;4.330;2022-10-16T11:40:31;27.90;95.30
23120;DHT22;11729;50.836;4.330;2022-10-16T11:43:06;28.50;94.20
23120;DHT22;11729;50.836;4.330;2022-10-16T11:45:45;28.10;94.80
23120;DHT22;11729;50.836;4.330;2022-10-16T11:50:54;27.50;95.20
23120;DHT22;11729;50.836;4.330;2022-10-16T11:56:16;26.30;96.70
23120;DHT22;11729;50.836;4.330;2022-10-16T12:04:16;25.00;98.30
23120;DHT22;11729;50.836;4.330;2022-10-16T12:06:57;24.40;99.00
23120;DHT22;11729;50.836;4.330;2022-10-16T12:09:30;24.30;99.90
23120;DHT22;11729;50.836;4.330;2022-10-16T12:11:57;24.30;99.90
23120;DHT22;11729;50.836;4.330;2022-10-16T12:17:00;24.60;99.90
23120;DHT22;11729;50.836;4.330;2022-10-16T12:19:29;24.60;99.60
23120;DHT22;11729;50.836;4.330;2022-10-16T12:21:59;24.60;99.80
23120;DHT22;11729;50.836;4.330;2022-10-16T12:24:38;24.50;99.30
23120;DHT22;11729;50.836;4.330;2022-10-16T12:27:28;24.20;99.90
23120;DHT22;11729;50.836;4.330;2022-10-16T12:30:00;23.70;99.90
23120;DHT22;11729;50.836;4.330;2022-10-16T12:32:35;24.20;99.90
23120;DHT22;11729;50.836;4.330;2022-10-16T12:35:02;24.50;99.90
23120;DHT22;11729;50.836;4.330;2022-10-16T12:37:35;24.40;99.90
23120;DHT22;11729;50.836;4.330;2022-10-16T12:40:28;24.50;99.90
23120;DHT22;11729;50.836;4.330;2022-10-16T12:42:55;24.40;99.90
23120;DHT22;11729;50.836;4.330;2022-10-16T12:47:53;23.90;99.90
23120;DHT22;11729;50.836;4.330;2022-10-16T12:50:26;23.50;99.90
23120;DHT22;11729;50.836;4.330;2022-10-16T12:52:53;23.10;99.90
23120;DHT22;11729;50.836;4.330;2022-10-16T12:55:21;23.00;99.90
23120;DHT22;11729;50.836;4.330;2022-10-16T13:01:08;22.80;99.90
23120;DHT22;11729;50.836;4.330;2022-10-16T13:06:37;22.80;99.90
23120;DHT22;11729;50.836;4.330;2022-10-16T13:28:35;22.90;99.90
23120;DHT22;11729;50.836;4.330;2022-10-16T13:31:03;22.50;99.90
23120;DHT22;11729;50.836;4.330;2022-10-16T13:33:41;22.20;99.90
23120;DHT22;11729;50.836;4.330;2022-10-16T13:36:34;22.30;99.90
23120;DHT22;11729;50.836;4.330;2022-10-16T13:39:23;22.60;99.90
23120;DHT22;11729;50.836;4.330;2022-10-16T13:42:02;22.70;99.90
23120;DHT22;11729;50.836;4.330;2022-10-16T13:44:31;22.60;99.90
23120;DHT22;11729;50.836;4.330;2022-10-16T13:47:01;21.90;99.90
23120;DHT22;11729;50.836;4.330;2022-10-16T13:49:27;21.50;99.90
23120;DHT22;11729;50.836;4.330;2022-10-16T13:51:58;21.30;99.90
23120;DHT22;11729;50.836;4.330;2022-10-16T13:54:25;21.20;99.90
23120;DHT22;11729;50.836;4.330;2022-10-16T13:56:51;21.20;99.90
23120;DHT22;11729;50.836;4.330;2022-10-16T13:59:32;21.10;99.90
23120;DHT22;11729;50.836;4.330;2022-10-16T14:01:58;21.20;99.90
23120;DHT22;11729;50.836;4.330;2022-10-16T14:04:27;21.20;99.90
23120;DHT22;11729;50.836;4.330;2022-10-16T14:06:55;21.50;99.90
23120;DHT22;11729;50.836;4.330;2022-10-16T14:09:29;21.60;99.90
23120;DHT22;11729;50.836;4.330;2022-10-16T14:12:06;21.60;99.90
23120;DHT22;11729;50.836;4.330;2022-10-16T14:14:47;21.60;99.90
23120;DHT22;11729;50.836;4.330;2022-10-16T14:17:26;21.60;99.90
23120;DHT22;11729;50.836;4.330;2022-10-16T14:19:55;21.60;99.90
23120;DHT22;11729;50.836;4.330;2022-10-16T14:25:01;21.50;99.90
23120;DHT22;11729;50.836;4.330;2022-10-16T14:27:36;21.40;99.90
23120;DHT22;11729;50.836;4.330;2022-10-16T14:32:34;21.10;99.90
23120;DHT22;11729;50.836;4.330;2022-10-16T14:34:59;21.00;99.90
23120;DHT22;11729;50.836;4.330;2022-10-16T14:37:27;21.00;99.90
23120;DHT22;11729;50.836;4.330;2022-10-16T14:39:54;21.10;99.90
23120;DHT22;11729;50.836;4.330;2022-10-16T14:42:21;21.20;99.90
23120;DHT22;11729;50.836;4.330;2022-10-16T14:44:50;21.10;99.90
23120;DHT22;11729;50.836;4.330;2022-10-16T14:47:19;20.80;99.90
23120;DHT22;11729;50.836;4.330;2022-10-16T14:49:47;20.70;99.90
23120;DHT22;11729;50.836;4.330;2022-10-16T14:52:13;20.40;99.90
23120;DHT22;11729;50.836;4.330;2022-10-16T14:54:40;20.60;99.90
23120;DHT22;11729;50.836;4.330;2022-10-16T14:57:05;20.80;99.90
23120;DHT22;11729;50.836;4.330;2022-10-16T14:59:42;20.70;99.90
23120;DHT22;11729;50.836;4.330;2022-10-16T15:02:32;20.50;99.90
23120;DHT22;11729;50.836;4.330;2022-10-16T15:05:12;20.70;99.90
23120;DHT22;11729;50.836;4.330;2022-10-16T15:07:38;20.80;99.90
23120;DHT22;11729;50.836;4.330;2022-10-16T15:10:04;20.50;99.90
23120;DHT22;11729;50.836;4.330;2022-10-16T15:12:30;20.20;99.90
23120;DHT22;11729;50.836;4.330;2022-10-16T15:14:55;20.30;99.90
23120;DHT22;11729;50.836;4.330;2022-10-16T15:17:21;20.40;99.90
23120;DHT22;11729;50.836;4.330;2022-10-16T15:19:47;20.50;99.90
23120;DHT22;11729;50.836;4.330;2022-10-16T15:22:12;20.50;99.90
23120;DHT22;11729;50.836;4.330;2022-10-16T15:24:38;20.40;99.90
23120;DHT22;11729;50.836;4.330;2022-10-16T15:27:03;20.50;99.90
23120;DHT22;11729;50.836;4.330;2022-10-16T15:29:29;20.60;99.90
23120;DHT22;11729;50.836;4.330;2022-10-16T15:31:55;20.50;99.90
23120;DHT22;11729;50.836;4.330;2022-10-16T15:34:20;20.50;99.90
23120;DHT22;11729;50.836;4.330;2022-10-16T15:36:46;20.40;99.90
23120;DHT22;11729;50.836;4.330;2022-10-16T15:39:17;20.40;99.90
23120;DHT22;11729;50.836;4.330;2022-10-16T15:41:45;20.40;99.90
23120;DHT22;11729;50.836;4.330;2022-10-16T15:44:16;20.20;99.90
23120;DHT22;11729;50.836;4.330;2022-10-16T15:46:41;20.20;99.90
23120;DHT22;11729;50.836;4.330;2022-10-16T15:49:08;20.10;99.90
23120;DHT22;11729;50.836;4.330;2022-10-16T15:51:38;20.00;99.90
23120;DHT22;11729;50.836;4.330;2022-10-16T15:54:03;20.00;99.90
23120;DHT22;11729;50.836;4.330;2022-10-16T15:56:29;20.10;99.90
23120;DHT22;11729;50.836;4.330;2022-10-16T15:58:58;20.10;99.90
23120;DHT22;11729;50.836;4.330;2022-10-16T16:01:24;20.00;99.90
23120;DHT22;11729;50.836;4.330;2022-10-16T16:03:53;20.00;99.90
23120;DHT22;11729;50.836;4.330;2022-10-16T16:06:19;20.10;99.90
23120;DHT22;11729;50.836;4.330;2022-10-16T16:08:44;19.90;99.90
23120;DHT22;11729;50.836;4.330;2022-10-16T16:11:14;19.80;99.90
23120;DHT22;11729;50.836;4.330;2022-10-16T16:13:40;19.80;99.90
23120;DHT22;11729;50.836;4.330;2022-10-16T16:16:11;19.90;99.90
23120;DHT22;11729;50.836;4.330;2022-10-16T16:18:37;19.90;99.90
23120;DHT22;11729;50.836;4.330;2022-10-16T16:21:03;19.90;99.90
23120;DHT22;11729;50.836;4.330;2022-10-16T16:23:30;20.00;99.90
23120;DHT22;11729;50.836;4.330;2022-10-16T16:26:04;20.00;99.90
23120;DHT22;11729;50.836;4.330;2022-10-16T16:28:29;19.90;99.90
23120;DHT22;11729;50.836;4.330;2022-10-16T16:30:55;19.80;99.90
23120;DHT22;11729;50.836;4.330;2022-10-16T16:33:22;19.60;99.90
23120;DHT22;11729;50.836;4.330;2022-10-16T16:35:47;19.70;99.90
23120;DHT22;11729;50.836;4.330;2022-10-16T16:38:13;19.50;99.90
23120;DHT22;11729;50.836;4.330;2022-10-16T16:40:38;19.60;99.90
23120;DHT22;11729;50.836;4.330;2022-10-16T16:43:04;19.60;99.90
23120;DHT22;11729;50.836;4.330;2022-10-16T16:45:30;19.70;99.90
23120;DHT22;11729;50.836;4.330;2022-10-16T16:47:55;19.70;99.90
23120;DHT22;11729;50.836;4.330;2022-10-16T16:50:21;19.60;99.90
23120;DHT22;11729;50.836;4.330;2022-10-16T16:52:46;19.70;99.90
23120;DHT22;11729;50.836;4.330;2022-10-16T16:55:12;19.70;99.90
23120;DHT22;11729;50.836;4.330;2022-10-16T16:57:37;19.70;99.90
23120;DHT22;11729;50.836;4.330;2022-10-16T17:00:04;19.70;99.90
23120;DHT22;11729;50.836;4.330;2022-10-16T17:02:29;19.70;99.90
23120;DHT22;11729;50.836;4.330;2022-10-16T17:04:55;19.70;99.90
23120;DHT22;11729;50.836;4.330;2022-10-16T17:07:22;19.60;99.90
23120;DHT22;11729;50.836;4.330;2022-10-16T17:09:50;19.20;99.90
23120;DHT22;11729;50.836;4.330;2022-10-16T17:12:16;18.90;99.90
23120;DHT22;11729;50.836;4.330;2022-10-16T17:14:41;18.70;99.90
23120;DHT22;11729;50.836;4.330;2022-10-16T17:17:07;18.50;99.90
23120;DHT22;11729;50.836;4.330;2022-10-16T17:19:32;18.30;99.90
23120;DHT22;11729;50.836;4.330;2022-10-16T17:21:58;18.20;99.90
23120;DHT22;11729;50.836;4.330;2022-10-16T17:24:23;18.00;99.90
23120;DHT22;11729;50.836;4.330;2022-10-16T17:26:49;17.90;99.90
23120;DHT22;11729;50.836;4.330;2022-10-16T17:29:16;17.80;99.90
23120;DHT22;11729;50.836;4.330;2022-10-16T17:31:42;17.80;99.90